createdAt,value
2019-03-05T00:00:08.280Z,8.96
2019-03-05T00:01:13.787Z,8.97
2019-03-05T00:02:19.292Z,8.97
2019-03-05T00:03:24.802Z,8.99
2019-03-05T00:04:30.310Z,9.09
2019-03-05T00:05:35.816Z,8.99
2019-03-05T00:06:41.329Z,9.06
2019-03-05T00:07:46.833Z,9.10
2019-03-05T00:08:52.341Z,9.06
2019-03-05T00:09:57.853Z,9.15
2019-03-05T00:11:03.368Z,9.18
2019-03-05T00:12:08.882Z,9.15
2019-03-05T00:13:14.377Z,9.23
2019-03-05T00:14:19.886Z,9.16
2019-03-05T00:15:25.400Z,9.21
2019-03-05T00:16:30.904Z,9.21
2019-03-05T00:17:36.402Z,9.20
2019-03-05T00:18:41.918Z,9.25
2019-03-05T00:19:47.424Z,9.20
2019-03-05T00:20:52.936Z,9.21
2019-03-05T00:21:58.440Z,9.24
2019-03-05T00:23:03.950Z,9.21
2019-03-05T00:24:09.460Z,9.21
2019-03-05T00:25:14.976Z,9.28
2019-03-05T00:26:20.476Z,9.21
2019-03-05T00:27:25.981Z,9.20
2019-03-05T00:28:31.499Z,9.18
2019-03-05T00:29:37.002Z,9.21
2019-03-05T00:30:42.509Z,9.20
2019-03-05T00:31:48.016Z,9.18
2019-03-05T00:32:53.533Z,9.15
2019-03-05T00:33:59.034Z,9.21
2019-03-05T00:35:04.544Z,9.15
2019-03-05T00:36:10.048Z,9.12
2019-03-05T00:37:15.560Z,9.13
2019-03-05T00:38:21.092Z,9.13
2019-03-05T00:39:26.580Z,9.15
2019-03-05T00:40:32.084Z,9.20
2019-03-05T00:41:37.603Z,9.13
2019-03-05T00:42:43.100Z,9.23
2019-03-05T00:43:48.609Z,9.13
2019-03-05T00:44:54.124Z,9.20
2019-03-05T00:45:59.631Z,9.21
2019-03-05T00:47:05.135Z,9.15
2019-03-05T00:48:11.444Z,9.10
2019-03-05T00:49:16.147Z,9.16
2019-03-05T00:50:21.659Z,9.30
2019-03-05T00:51:27.167Z,9.15
2019-03-05T00:52:32.673Z,9.21
2019-03-05T00:53:38.183Z,9.21
2019-03-05T00:54:43.689Z,9.25
2019-03-05T00:55:50.032Z,9.13
2019-03-05T00:56:54.715Z,9.23
2019-03-05T00:58:00.227Z,9.20
2019-03-05T00:59:05.726Z,9.10
2019-03-05T01:00:11.233Z,9.24
2019-03-05T01:01:16.741Z,9.10
2019-03-05T01:02:22.248Z,9.23
2019-03-05T01:03:27.754Z,9.20
2019-03-05T01:04:33.265Z,9.23
2019-03-05T01:05:38.770Z,9.18
2019-03-05T01:06:44.278Z,9.21
2019-03-05T01:07:49.789Z,9.20
2019-03-05T01:08:55.302Z,9.23
2019-03-05T01:10:00.812Z,9.21
2019-03-05T01:11:06.328Z,9.24
2019-03-05T01:12:11.853Z,9.16
2019-03-05T01:13:17.334Z,9.25
2019-03-05T01:14:22.841Z,9.20
2019-03-05T01:15:28.349Z,9.16
2019-03-05T01:16:33.858Z,9.16
2019-03-05T01:17:39.374Z,9.18
2019-03-05T01:18:44.876Z,9.12
2019-03-05T01:19:50.387Z,9.13
2019-03-05T01:20:55.900Z,9.10
2019-03-05T01:22:01.408Z,9.12
2019-03-05T01:23:06.904Z,9.09
2019-03-05T01:24:12.419Z,9.06
2019-03-05T01:25:17.929Z,9.09
2019-03-05T01:26:23.431Z,9.09
2019-03-05T01:27:28.938Z,9.10
2019-03-05T01:28:34.451Z,9.12
2019-03-05T01:29:39.956Z,9.09
2019-03-05T01:30:45.464Z,9.05
2019-03-05T01:31:50.971Z,9.01
2019-03-05T01:32:56.480Z,8.99
2019-03-05T01:34:01.994Z,8.97
2019-03-05T01:35:07.497Z,8.99
2019-03-05T01:36:13.003Z,9.06
2019-03-05T01:37:18.510Z,9.06
2019-03-05T01:38:24.025Z,8.99
2019-03-05T01:39:29.528Z,8.96
2019-03-05T01:40:35.039Z,8.91
2019-03-05T01:41:40.545Z,8.97
2019-03-05T01:42:46.051Z,8.97
2019-03-05T01:43:51.560Z,8.94
2019-03-05T01:44:57.071Z,8.94
2019-03-05T01:46:02.586Z,9.02
2019-03-05T01:47:08.089Z,8.94
2019-03-05T01:48:13.596Z,8.97
2019-03-05T01:49:19.102Z,9.04
2019-03-05T01:50:24.617Z,8.99
2019-03-05T01:51:30.120Z,8.94
2019-03-05T01:52:35.629Z,8.93
2019-03-05T01:53:41.136Z,8.99
2019-03-05T01:54:46.643Z,9.01
2019-03-05T01:55:52.153Z,8.97
2019-03-05T01:56:57.656Z,9.10
2019-03-05T01:58:03.178Z,9.15
2019-03-05T01:59:08.681Z,9.13
2019-03-05T02:00:14.190Z,9.04
2019-03-05T02:01:19.696Z,9.06
2019-03-05T02:02:25.198Z,9.09
2019-03-05T02:03:30.735Z,9.12
2019-03-05T02:04:36.223Z,9.13
2019-03-05T02:05:41.725Z,9.09
2019-03-05T02:06:47.230Z,9.15
2019-03-05T02:07:52.742Z,9.12
2019-03-05T02:08:58.248Z,9.10
2019-03-05T02:10:03.759Z,9.10
2019-03-05T02:11:09.265Z,9.12
2019-03-05T02:12:14.776Z,9.12
2019-03-05T02:13:20.287Z,9.13
2019-03-05T02:14:25.792Z,9.13
2019-03-05T02:15:31.300Z,9.16
2019-03-05T02:16:36.810Z,9.10
2019-03-05T02:17:42.318Z,9.06
2019-03-05T02:18:47.823Z,9.06
2019-03-05T02:19:53.339Z,8.96
2019-03-05T02:20:58.844Z,8.99
2019-03-05T02:22:04.350Z,8.93
2019-03-05T02:23:09.867Z,8.97
2019-03-05T02:24:15.369Z,9.02
2019-03-05T02:25:20.875Z,9.02
2019-03-05T02:26:26.382Z,9.09
2019-03-05T02:27:31.889Z,9.01
2019-03-05T02:28:37.405Z,9.02
2019-03-05T02:29:42.908Z,9.01
2019-03-05T02:30:48.421Z,8.90
2019-03-05T02:31:53.924Z,8.96
2019-03-05T02:32:59.443Z,8.97
2019-03-05T02:34:04.942Z,8.91
2019-03-05T02:35:10.448Z,9.01
2019-03-05T02:36:15.956Z,8.94
2019-03-05T02:37:21.478Z,8.84
2019-03-05T02:38:26.972Z,8.91
2019-03-05T02:39:32.489Z,8.81
2019-03-05T02:40:37.987Z,8.79
2019-03-05T02:41:43.500Z,8.86
2019-03-05T02:42:49.007Z,8.81
2019-03-05T02:43:54.515Z,8.81
2019-03-05T02:45:00.019Z,8.81
2019-03-05T02:46:05.530Z,8.84
2019-03-05T02:47:11.041Z,8.86
2019-03-05T02:48:16.545Z,8.81
2019-03-05T02:49:22.062Z,8.65
2019-03-05T02:50:27.563Z,8.68
2019-03-05T02:51:33.072Z,8.69
2019-03-05T02:52:38.587Z,8.68
2019-03-05T02:53:44.087Z,8.60
2019-03-05T02:54:49.595Z,8.57
2019-03-05T02:55:55.101Z,8.51
2019-03-05T02:57:00.606Z,8.55
2019-03-05T02:58:06.121Z,8.60
2019-03-05T02:59:11.635Z,8.57
2019-03-05T03:00:17.135Z,8.53
2019-03-05T03:01:22.648Z,8.55
2019-03-05T03:02:28.150Z,8.57
2019-03-05T03:03:33.664Z,8.60
2019-03-05T03:04:39.168Z,8.53
2019-03-05T03:05:44.694Z,8.51
2019-03-05T03:06:50.191Z,8.44
2019-03-05T03:07:55.691Z,8.50
2019-03-05T03:09:01.200Z,8.53
2019-03-05T03:10:06.703Z,8.58
2019-03-05T03:11:12.212Z,8.55
2019-03-05T03:12:17.722Z,8.57
2019-03-05T03:13:23.230Z,8.53
2019-03-05T03:14:28.748Z,8.50
2019-03-05T03:15:34.243Z,8.48
2019-03-05T03:16:39.750Z,8.50
2019-03-05T03:17:45.263Z,8.51
2019-03-05T03:18:50.771Z,8.50
2019-03-05T03:19:56.278Z,8.45
2019-03-05T03:21:01.780Z,8.50
2019-03-05T03:22:07.294Z,8.39
2019-03-05T03:23:12.803Z,8.48
2019-03-05T03:24:18.310Z,8.30
2019-03-05T03:25:23.815Z,8.30
2019-03-05T03:26:29.322Z,8.32
2019-03-05T03:27:34.830Z,8.39
2019-03-05T03:28:40.336Z,8.26
2019-03-05T03:29:45.847Z,8.35
2019-03-05T03:30:51.355Z,8.42
2019-03-05T03:31:56.862Z,8.21
2019-03-05T03:33:02.373Z,8.37
2019-03-05T03:34:07.879Z,8.33
2019-03-05T03:35:13.389Z,8.40
2019-03-05T03:36:18.908Z,8.30
2019-03-05T03:37:24.400Z,8.32
2019-03-05T03:38:29.910Z,8.40
2019-03-05T03:39:35.423Z,8.36
2019-03-05T03:40:40.932Z,8.32
2019-03-05T03:41:46.443Z,8.30
2019-03-05T03:42:51.948Z,8.32
2019-03-05T03:43:57.448Z,8.29
2019-03-05T03:45:02.957Z,8.28
2019-03-05T03:46:08.466Z,8.22
2019-03-05T03:47:13.977Z,8.21
2019-03-05T03:48:19.478Z,8.26
2019-03-05T03:49:24.993Z,8.25
2019-03-05T03:50:30.511Z,8.29
2019-03-05T03:51:36.002Z,8.28
2019-03-05T03:52:41.510Z,8.29
2019-03-05T03:53:47.018Z,8.25
2019-03-05T03:54:52.523Z,8.29
2019-03-05T03:55:58.035Z,8.29
2019-03-05T03:57:03.541Z,8.30
2019-03-05T03:58:09.046Z,8.29
2019-03-05T03:59:14.562Z,8.33
2019-03-05T04:00:20.070Z,8.29
2019-03-05T04:01:25.568Z,8.33
2019-03-05T04:02:31.089Z,8.29
2019-03-05T04:03:36.586Z,8.26
2019-03-05T04:04:42.096Z,8.18
2019-03-05T04:05:47.604Z,8.26
2019-03-05T04:06:53.115Z,8.22
2019-03-05T04:07:58.617Z,8.28
2019-03-05T04:09:04.128Z,8.21
2019-03-05T04:10:09.634Z,8.20
2019-03-05T04:11:15.145Z,8.15
2019-03-05T04:12:20.650Z,8.21
2019-03-05T04:13:26.164Z,8.12
2019-03-05T04:14:31.662Z,8.15
2019-03-05T04:15:37.173Z,8.20
2019-03-05T04:16:42.677Z,8.20
2019-03-05T04:17:48.188Z,8.18
2019-03-05T04:18:53.692Z,8.21
2019-03-05T04:19:59.204Z,8.15
2019-03-05T04:21:04.706Z,8.22
2019-03-05T04:22:10.214Z,8.32
2019-03-05T04:23:15.723Z,8.29
2019-03-05T04:24:21.233Z,8.29
2019-03-05T04:25:26.753Z,8.26
2019-03-05T04:26:32.250Z,8.25
2019-03-05T04:27:37.753Z,8.22
2019-03-05T04:28:43.263Z,8.29
2019-03-05T04:29:48.772Z,8.40
2019-03-05T04:30:54.277Z,8.39
2019-03-05T04:31:59.792Z,8.36
2019-03-05T04:33:05.295Z,8.40
2019-03-05T04:34:10.800Z,8.44
2019-03-05T04:35:16.304Z,8.45
2019-03-05T04:36:21.815Z,8.45
2019-03-05T04:37:27.325Z,8.39
2019-03-05T04:38:32.831Z,8.45
2019-03-05T04:39:38.338Z,8.45
2019-03-05T04:40:43.909Z,8.42
2019-03-05T04:41:49.354Z,8.35
2019-03-05T04:42:54.865Z,8.42
2019-03-05T04:44:00.368Z,8.37
2019-03-05T04:45:05.876Z,8.44
2019-03-05T04:46:11.384Z,8.47
2019-03-05T04:47:16.895Z,8.35
2019-03-05T04:48:22.401Z,8.33
2019-03-05T04:49:27.982Z,8.28
2019-03-05T04:50:33.418Z,8.39
2019-03-05T04:51:38.925Z,8.40
2019-03-05T04:52:44.431Z,8.37
2019-03-05T04:53:49.940Z,8.45
2019-03-05T04:54:55.445Z,8.58
2019-03-05T04:56:00.954Z,8.57
2019-03-05T04:57:06.465Z,8.58
2019-03-05T04:58:11.971Z,8.65
2019-03-05T04:59:17.474Z,8.65
2019-03-05T05:00:22.986Z,8.65
2019-03-05T05:01:28.499Z,8.63
2019-03-05T05:02:34.000Z,8.68
2019-03-05T05:03:39.511Z,8.57
2019-03-05T05:04:45.027Z,8.57
2019-03-05T05:05:50.525Z,8.50
2019-03-05T05:06:56.030Z,8.57
2019-03-05T05:08:01.536Z,8.45
2019-03-05T05:09:07.050Z,8.45
2019-03-05T05:10:12.557Z,8.39
2019-03-05T05:11:18.064Z,8.37
2019-03-05T05:12:23.568Z,8.44
2019-03-05T05:13:29.080Z,8.40
2019-03-05T05:14:34.591Z,8.42
2019-03-05T05:15:40.097Z,8.42
2019-03-05T05:16:45.603Z,8.42
2019-03-05T05:17:51.113Z,8.42
2019-03-05T05:18:56.618Z,8.45
2019-03-05T05:20:02.125Z,8.39
2019-03-05T05:21:07.635Z,8.40
2019-03-05T05:22:13.149Z,8.39
2019-03-05T05:23:18.651Z,8.42
2019-03-05T05:24:24.168Z,8.36
2019-03-05T05:25:29.668Z,8.36
2019-03-05T05:26:35.173Z,8.45
2019-03-05T05:27:40.680Z,8.37
2019-03-05T05:28:46.194Z,8.36
2019-03-05T05:29:51.695Z,8.32
2019-03-05T05:30:57.201Z,8.47
2019-03-05T05:32:02.716Z,8.42
2019-03-05T05:33:08.227Z,8.39
2019-03-05T05:34:13.729Z,8.42
2019-03-05T05:35:19.238Z,8.28
2019-03-05T05:36:24.745Z,8.33
2019-03-05T05:37:30.251Z,8.30
2019-03-05T05:38:35.770Z,8.36
2019-03-05T05:39:41.267Z,8.33
2019-03-05T05:40:46.775Z,8.26
2019-03-05T05:41:52.281Z,8.26
2019-03-05T05:42:57.795Z,8.30
2019-03-05T05:44:03.295Z,8.33
2019-03-05T05:45:08.809Z,8.30
2019-03-05T05:46:14.313Z,8.28
2019-03-05T05:47:19.826Z,8.26
2019-03-05T05:48:25.333Z,8.25
2019-03-05T05:49:30.839Z,8.30
2019-03-05T05:50:36.344Z,8.40
2019-03-05T05:51:44.341Z,8.42
2019-03-05T05:52:47.363Z,8.32
2019-03-05T05:53:52.869Z,8.40
2019-03-05T05:54:58.377Z,8.44
2019-03-05T05:56:03.890Z,8.37
2019-03-05T05:57:09.391Z,8.36
2019-03-05T05:58:14.899Z,8.42
2019-03-05T05:59:20.410Z,8.45
2019-03-05T06:00:25.916Z,8.35
2019-03-05T06:01:31.421Z,8.33
2019-03-05T06:02:36.929Z,8.26
2019-03-05T06:03:42.438Z,8.30
2019-03-05T06:04:47.945Z,8.36
2019-03-05T06:05:53.452Z,8.39
2019-03-05T06:06:58.963Z,8.40
2019-03-05T06:08:04.459Z,8.33
2019-03-05T06:09:09.977Z,8.30
2019-03-05T06:10:15.484Z,8.21
2019-03-05T06:11:20.990Z,8.29
2019-03-05T06:12:26.505Z,8.32
2019-03-05T06:13:32.006Z,8.29
2019-03-05T06:14:37.517Z,8.29
2019-03-05T06:15:43.023Z,8.32
2019-03-05T06:16:48.533Z,8.40
2019-03-05T06:17:54.040Z,8.32
2019-03-05T06:18:59.547Z,8.40
2019-03-05T06:20:05.053Z,8.37
2019-03-05T06:21:10.560Z,8.44
2019-03-05T06:22:16.070Z,8.45
2019-03-05T06:23:21.575Z,8.44
2019-03-05T06:24:27.084Z,8.45
2019-03-05T06:25:32.591Z,8.51
2019-03-05T06:26:38.102Z,8.39
2019-03-05T06:27:43.610Z,8.48
2019-03-05T06:28:49.112Z,8.50
2019-03-05T06:29:54.624Z,8.45
2019-03-05T06:31:00.132Z,8.57
2019-03-05T06:32:05.637Z,8.54
2019-03-05T06:33:11.151Z,8.50
2019-03-05T06:34:16.652Z,8.62
2019-03-05T06:35:22.166Z,8.62
2019-03-05T06:36:27.664Z,8.60
2019-03-05T06:37:33.290Z,8.53
2019-03-05T06:38:38.691Z,8.53
2019-03-05T06:39:44.193Z,8.50
2019-03-05T06:40:49.704Z,8.51
2019-03-05T06:41:55.215Z,8.60
2019-03-05T06:43:00.718Z,8.53
2019-03-05T06:44:06.228Z,8.57
2019-03-05T06:45:11.735Z,8.55
2019-03-05T06:46:17.242Z,8.51
2019-03-05T06:47:22.751Z,8.60
2019-03-05T06:48:28.256Z,8.55
2019-03-05T06:49:33.771Z,8.60
2019-03-05T06:50:39.283Z,8.60
2019-03-05T06:51:44.785Z,8.63
2019-03-05T06:52:50.354Z,8.60
2019-03-05T06:53:55.804Z,8.55
2019-03-05T06:55:01.306Z,8.58
2019-03-05T06:56:06.814Z,8.62
2019-03-05T06:57:12.322Z,8.63
2019-03-05T06:58:17.831Z,8.65
2019-03-05T06:59:23.335Z,8.66
2019-03-05T07:00:28.845Z,8.66
2019-03-05T07:01:34.355Z,8.72
2019-03-05T07:02:39.859Z,8.65
2019-03-05T07:03:45.379Z,8.62
2019-03-05T07:04:50.877Z,8.53
2019-03-05T07:05:56.433Z,8.48
2019-03-05T07:07:01.891Z,8.60
2019-03-05T07:08:07.401Z,8.58
2019-03-05T07:09:12.907Z,8.58
2019-03-05T07:10:18.418Z,8.60
2019-03-05T07:11:23.924Z,8.65
2019-03-05T07:12:29.430Z,8.66
2019-03-05T07:13:34.947Z,8.60
2019-03-05T07:14:40.452Z,8.63
2019-03-05T07:15:45.966Z,8.69
2019-03-05T07:16:51.463Z,8.62
2019-03-05T07:17:56.971Z,8.50
2019-03-05T07:19:02.483Z,8.58
2019-03-05T07:20:07.990Z,8.55
2019-03-05T07:21:13.504Z,8.54
2019-03-05T07:22:19.003Z,8.60
2019-03-05T07:23:24.512Z,8.68
2019-03-05T07:24:30.018Z,8.69
2019-03-05T07:25:35.540Z,8.66
2019-03-05T07:26:41.037Z,8.60
2019-03-05T07:27:46.543Z,8.57
2019-03-05T07:28:52.059Z,8.57
2019-03-05T07:29:57.563Z,8.68
2019-03-05T07:31:03.067Z,8.65
2019-03-05T07:32:08.579Z,8.71
2019-03-05T07:33:14.085Z,8.68
2019-03-05T07:34:19.589Z,8.66
2019-03-05T07:35:25.106Z,8.72
2019-03-05T07:36:30.607Z,8.69
2019-03-05T07:37:36.118Z,8.65
2019-03-05T07:38:41.622Z,8.66
2019-03-05T07:39:47.133Z,8.66
2019-03-05T07:40:52.642Z,8.71
2019-03-05T07:41:58.151Z,8.68
2019-03-05T07:43:03.654Z,8.63
2019-03-05T07:44:09.166Z,8.68
2019-03-05T07:45:14.679Z,8.62
2019-03-05T07:46:20.177Z,8.66
2019-03-05T07:47:25.688Z,8.66
2019-03-05T07:48:31.201Z,8.72
2019-03-05T07:49:43.881Z,8.68
2019-03-05T07:50:42.211Z,8.69
2019-03-05T07:51:47.718Z,8.69
2019-03-05T07:52:53.233Z,8.62
2019-03-05T07:53:58.768Z,8.55
2019-03-05T07:55:13.298Z,8.60
2019-03-05T07:56:09.753Z,8.58
2019-03-05T07:57:15.250Z,8.55
2019-03-05T07:58:20.766Z,8.60
2019-03-05T07:59:26.282Z,8.62
2019-03-05T08:00:31.796Z,8.45
2019-03-05T08:01:37.299Z,8.63
2019-03-05T08:02:42.801Z,8.54
2019-03-05T08:03:48.308Z,8.55
2019-03-05T08:04:53.818Z,8.50
2019-03-05T08:05:59.323Z,8.42
2019-03-05T08:07:04.896Z,8.40
2019-03-05T08:08:10.341Z,8.45
2019-03-05T08:09:15.847Z,8.39
2019-03-05T08:10:21.353Z,8.40
2019-03-05T08:11:26.862Z,8.32
2019-03-05T08:12:32.372Z,8.29
2019-03-05T08:13:37.877Z,8.26
2019-03-05T08:14:43.386Z,8.32
2019-03-05T08:15:48.900Z,8.30
2019-03-05T08:16:54.401Z,8.28
2019-03-05T08:17:59.910Z,8.32
2019-03-05T08:19:05.424Z,8.29
2019-03-05T08:20:10.929Z,8.30
2019-03-05T08:21:16.433Z,8.25
2019-03-05T08:22:21.941Z,8.20
2019-03-05T08:23:27.618Z,8.17
2019-03-05T08:24:32.963Z,8.15
2019-03-05T08:25:38.466Z,8.32
2019-03-05T08:26:43.972Z,8.25
2019-03-05T08:27:50.735Z,8.17
2019-03-05T08:28:54.989Z,8.21
2019-03-05T08:30:00.502Z,8.22
2019-03-05T08:31:06.002Z,8.18
2019-03-05T08:32:11.519Z,8.11
2019-03-05T08:33:17.017Z,8.29
2019-03-05T08:34:22.528Z,8.21
2019-03-05T08:35:28.153Z,8.28
2019-03-05T08:36:33.543Z,8.30
2019-03-05T08:37:39.072Z,8.26
2019-03-05T08:38:44.560Z,8.26
2019-03-05T08:39:50.065Z,8.32
2019-03-05T08:40:55.573Z,8.44
2019-03-05T08:42:01.078Z,8.42
2019-03-05T08:43:06.599Z,8.39
2019-03-05T08:44:12.098Z,8.42
2019-03-05T08:45:28.535Z,8.45
2019-03-05T08:46:23.119Z,8.50
2019-03-05T08:47:28.622Z,8.51
2019-03-05T08:48:34.134Z,8.48
2019-03-05T08:49:39.634Z,8.57
2019-03-05T08:50:45.160Z,8.60
2019-03-05T08:51:50.660Z,8.50
2019-03-05T08:52:56.159Z,8.63
2019-03-05T08:54:01.668Z,8.57
2019-03-05T08:55:07.181Z,8.68
2019-03-05T08:56:12.702Z,8.63
2019-03-05T08:57:18.199Z,8.62
2019-03-05T08:58:23.701Z,8.53
2019-03-05T08:59:29.228Z,8.40
2019-03-05T09:00:34.715Z,8.36
2019-03-05T09:01:40.223Z,8.45
2019-03-05T09:02:49.052Z,8.42
2019-03-05T09:03:51.240Z,8.33
2019-03-05T09:04:56.746Z,8.42
2019-03-05T09:06:02.252Z,8.40
2019-03-05T09:07:07.761Z,8.37
2019-03-05T09:08:13.266Z,8.37
2019-03-05T09:09:18.779Z,8.37
2019-03-05T09:10:24.277Z,8.40
2019-03-05T09:11:29.795Z,8.42
2019-03-05T09:12:35.299Z,8.44
2019-03-05T09:13:40.808Z,8.40
2019-03-05T09:14:46.319Z,8.26
2019-03-05T09:15:51.825Z,8.25
2019-03-05T09:16:57.332Z,8.30
2019-03-05T09:18:02.838Z,8.26
2019-03-05T09:19:08.353Z,8.37
2019-03-05T09:20:13.855Z,8.47
2019-03-05T09:21:19.362Z,8.44
2019-03-05T09:22:24.871Z,8.57
2019-03-05T09:23:30.382Z,8.54
2019-03-05T09:24:35.890Z,8.58
2019-03-05T09:25:41.395Z,8.54
2019-03-05T09:26:51.222Z,8.62
2019-03-05T09:27:52.421Z,8.71
2019-03-05T09:28:57.921Z,8.69
2019-03-05T09:30:03.490Z,8.65
2019-03-05T09:31:08.938Z,8.63
2019-03-05T09:32:14.440Z,8.62
2019-03-05T09:33:19.951Z,8.75
2019-03-05T09:34:25.455Z,8.78
2019-03-05T09:35:30.962Z,8.87
2019-03-05T09:36:36.470Z,8.81
2019-03-05T09:37:41.989Z,8.87
2019-03-05T09:38:47.491Z,8.99
2019-03-05T09:39:52.996Z,8.91
2019-03-05T09:40:58.556Z,8.96
2019-03-05T09:42:04.023Z,8.88
2019-03-05T09:43:09.534Z,9.04
2019-03-05T09:44:15.031Z,9.10
2019-03-05T09:45:20.537Z,9.06
2019-03-05T09:46:26.049Z,9.15
2019-03-05T09:47:31.552Z,9.25
2019-03-05T09:48:37.061Z,9.28
2019-03-05T09:49:42.570Z,9.24
2019-03-05T09:50:48.080Z,9.32
2019-03-05T09:51:53.584Z,9.31
2019-03-05T09:52:59.093Z,9.39
2019-03-05T09:54:04.606Z,9.46
2019-03-05T09:55:10.111Z,9.39
2019-03-05T09:56:15.622Z,9.39
2019-03-05T09:57:21.132Z,9.39
2019-03-05T09:58:26.632Z,9.35
2019-03-05T09:59:32.144Z,9.46
2019-03-05T10:00:37.659Z,9.49
2019-03-05T10:01:43.163Z,9.52
2019-03-05T10:02:48.692Z,9.42
2019-03-05T10:03:54.182Z,9.49
2019-03-05T10:04:59.698Z,9.53
2019-03-05T10:06:05.197Z,9.42
2019-03-05T10:07:18.520Z,9.60
2019-03-05T10:08:16.224Z,9.56
2019-03-05T10:09:21.730Z,9.53
2019-03-05T10:10:27.232Z,9.61
2019-03-05T10:11:32.744Z,9.66
2019-03-05T10:12:38.245Z,9.63
2019-03-05T10:13:43.763Z,9.53
2019-03-05T10:14:49.266Z,9.56
2019-03-05T10:15:54.782Z,9.56
2019-03-05T10:17:00.285Z,9.45
2019-03-05T10:18:12.646Z,9.45
2019-03-05T10:19:11.294Z,9.53
2019-03-05T10:20:16.810Z,9.50
2019-03-05T10:21:22.314Z,9.40
2019-03-05T10:22:27.827Z,9.40
2019-03-05T10:23:33.333Z,9.35
2019-03-05T10:24:38.842Z,9.34
2019-03-05T10:25:44.349Z,9.39
2019-03-05T10:26:49.861Z,9.53
2019-03-05T10:27:55.371Z,9.53
2019-03-05T10:29:00.874Z,9.57
2019-03-05T10:30:06.384Z,9.56
2019-03-05T10:31:11.895Z,9.67
2019-03-05T10:32:17.407Z,9.67
2019-03-05T10:33:22.908Z,9.66
2019-03-05T10:34:28.417Z,9.83
2019-03-05T10:35:33.925Z,9.93
2019-03-05T10:36:39.448Z,10.03
2019-03-05T10:37:44.946Z,10.06
2019-03-05T10:38:57.395Z,10.10
2019-03-05T10:39:55.957Z,10.03
2019-03-05T10:41:01.487Z,10.09
2019-03-05T10:42:06.979Z,10.18
2019-03-05T10:43:12.501Z,10.04
2019-03-05T10:44:17.994Z,10.10
2019-03-05T10:45:23.520Z,10.07
2019-03-05T10:46:29.017Z,10.17
2019-03-05T10:47:34.521Z,10.15
2019-03-05T10:48:40.032Z,10.14
2019-03-05T10:49:45.542Z,10.22
2019-03-05T10:50:51.049Z,10.30
2019-03-05T10:51:58.794Z,10.24
2019-03-05T10:53:02.067Z,10.39
2019-03-05T10:54:07.574Z,10.36
2019-03-05T10:55:13.104Z,10.42
2019-03-05T10:56:18.596Z,10.44
2019-03-05T10:57:24.099Z,10.47
2019-03-05T10:58:33.891Z,10.46
2019-03-05T10:59:35.119Z,10.68
2019-03-05T11:00:40.629Z,10.62
2019-03-05T11:01:46.154Z,10.58
2019-03-05T11:02:51.654Z,10.68
2019-03-05T11:03:57.159Z,10.73
2019-03-05T11:05:02.669Z,10.78
2019-03-05T11:06:08.222Z,10.77
2019-03-05T11:07:13.682Z,10.81
2019-03-05T11:08:19.200Z,10.86
2019-03-05T11:09:24.717Z,10.91
2019-03-05T11:10:30.209Z,10.91
2019-03-05T11:11:35.726Z,11.02
2019-03-05T11:12:41.229Z,10.98
2019-03-05T11:13:46.743Z,10.89
2019-03-05T11:14:52.246Z,10.94
2019-03-05T11:15:57.770Z,10.98
2019-03-05T11:17:03.264Z,11.06
2019-03-05T11:18:08.778Z,10.98
2019-03-05T11:19:14.281Z,11.07
2019-03-05T11:20:19.796Z,11.20
2019-03-05T11:21:25.303Z,11.36
2019-03-05T11:22:30.817Z,11.38
2019-03-05T11:23:36.327Z,11.39
2019-03-05T11:24:41.835Z,11.38
2019-03-05T11:25:47.342Z,11.39
2019-03-05T11:26:52.849Z,11.46
2019-03-05T11:27:58.366Z,11.43
2019-03-05T11:29:03.874Z,11.43
2019-03-05T11:30:09.385Z,11.38
2019-03-05T11:31:14.892Z,11.49
2019-03-05T11:32:20.410Z,11.54
2019-03-05T11:33:25.910Z,11.56
2019-03-05T11:34:31.419Z,11.39
2019-03-05T11:35:36.931Z,11.46
2019-03-05T11:36:42.442Z,11.35
2019-03-05T11:37:47.953Z,11.39
2019-03-05T11:38:53.461Z,11.34
2019-03-05T11:39:58.971Z,11.41
2019-03-05T11:41:04.482Z,11.47
2019-03-05T11:42:10.001Z,11.41
2019-03-05T11:43:15.503Z,11.43
2019-03-05T11:44:21.006Z,11.47
2019-03-05T11:45:26.519Z,11.56
2019-03-05T11:46:32.026Z,11.47
2019-03-05T11:47:37.548Z,11.52
2019-03-05T11:48:43.053Z,11.54
2019-03-05T11:49:48.564Z,11.64
2019-03-05T11:50:54.066Z,11.54
2019-03-05T11:51:59.576Z,11.53
2019-03-05T11:53:05.086Z,11.53
2019-03-05T11:54:10.598Z,11.56
2019-03-05T11:55:16.106Z,11.64
2019-03-05T11:56:21.619Z,11.82
2019-03-05T11:57:27.135Z,11.85
2019-03-05T11:58:32.696Z,11.97
2019-03-05T11:59:38.145Z,12.20
2019-03-05T12:00:43.655Z,12.29
2019-03-05T12:01:49.173Z,12.41
2019-03-05T12:02:54.674Z,12.52
2019-03-05T12:04:00.185Z,12.62
2019-03-05T12:05:05.695Z,12.59
2019-03-05T12:06:11.202Z,12.59
2019-03-05T12:07:16.717Z,12.70
2019-03-05T12:08:22.238Z,12.74
2019-03-05T12:09:27.743Z,12.69
2019-03-05T12:10:33.249Z,12.74
2019-03-05T12:11:38.758Z,12.60
2019-03-05T12:12:44.302Z,12.51
2019-03-05T12:13:49.771Z,12.51
2019-03-05T12:14:55.300Z,12.51
2019-03-05T12:16:00.802Z,12.41
2019-03-05T12:17:06.307Z,12.56
2019-03-05T12:18:11.829Z,12.56
2019-03-05T12:19:17.330Z,12.67
2019-03-05T12:20:22.848Z,12.62
2019-03-05T12:21:28.356Z,12.56
2019-03-05T12:22:33.863Z,12.62
2019-03-05T12:23:39.371Z,12.59
2019-03-05T12:24:44.895Z,12.49
2019-03-05T12:25:50.398Z,12.49
2019-03-05T12:26:55.910Z,12.42
2019-03-05T12:28:09.779Z,12.39
2019-03-05T12:29:06.923Z,12.26
2019-03-05T12:30:12.437Z,12.30
2019-03-05T12:31:17.949Z,12.30
2019-03-05T12:32:23.457Z,12.16
2019-03-05T12:33:29.003Z,12.24
2019-03-05T12:34:34.487Z,12.21
2019-03-05T12:35:39.996Z,12.20
2019-03-05T12:36:45.498Z,12.37
2019-03-05T12:37:51.004Z,12.69
2019-03-05T12:38:56.518Z,12.62
2019-03-05T12:40:02.033Z,12.62
2019-03-05T12:41:07.550Z,12.54
2019-03-05T12:42:13.043Z,12.79
2019-03-05T12:43:18.562Z,12.88
2019-03-05T12:44:24.086Z,12.87
2019-03-05T12:45:29.619Z,12.85
2019-03-05T12:46:35.105Z,12.92
2019-03-05T12:47:40.603Z,12.78
2019-03-05T12:48:46.121Z,12.63
2019-03-05T12:49:51.631Z,12.85
2019-03-05T12:50:57.135Z,13.88
2019-03-05T12:52:02.650Z,14.87
2019-03-05T12:53:08.214Z,16.77
2019-03-05T12:54:13.674Z,17.40
2019-03-05T12:55:19.186Z,17.06
2019-03-05T12:56:24.690Z,16.80
2019-03-05T12:57:30.211Z,17.15
2019-03-05T12:58:35.727Z,17.36
2019-03-05T12:59:41.241Z,17.84
2019-03-05T13:00:46.746Z,18.18
2019-03-05T13:01:52.257Z,18.68
2019-03-05T13:02:57.789Z,19.10
2019-03-05T13:04:03.297Z,19.24
2019-03-05T13:05:08.805Z,19.47
2019-03-05T13:06:14.325Z,19.48
2019-03-05T13:07:19.839Z,19.98
2019-03-05T13:08:25.354Z,20.50
2019-03-05T13:09:30.878Z,21.06
2019-03-05T13:10:37.609Z,21.42
2019-03-05T13:11:41.909Z,21.76
2019-03-05T13:12:47.446Z,22.01
2019-03-05T13:14:05.673Z,22.22
2019-03-05T13:14:58.473Z,22.50
2019-03-05T13:16:04.009Z,22.71
2019-03-05T13:17:09.511Z,22.68
2019-03-05T13:18:15.030Z,22.07
2019-03-05T13:19:20.550Z,21.92
2019-03-05T13:20:26.442Z,22.02
2019-03-05T13:21:31.605Z,22.06
2019-03-05T13:22:37.118Z,22.02
2019-03-05T13:23:42.633Z,21.92
2019-03-05T13:24:50.243Z,21.76
2019-03-05T13:25:53.675Z,21.69
2019-03-05T13:26:59.195Z,21.99
2019-03-05T13:28:04.716Z,22.02
2019-03-05T13:29:10.233Z,22.09
2019-03-05T13:30:15.755Z,22.16
2019-03-05T13:31:21.267Z,22.43
2019-03-05T13:32:26.789Z,22.59
2019-03-05T13:33:33.598Z,22.71
2019-03-05T13:34:37.871Z,22.75
2019-03-05T13:35:43.349Z,22.67
2019-03-05T13:36:50.639Z,22.72
2019-03-05T13:37:54.394Z,22.68
2019-03-05T13:38:59.907Z,22.82
2019-03-05T13:40:05.434Z,22.86
2019-03-05T13:41:12.242Z,22.90
2019-03-05T13:42:16.479Z,22.94
2019-03-05T13:43:22.004Z,22.89
2019-03-05T13:44:27.900Z,22.50
2019-03-05T13:45:33.016Z,21.97
2019-03-05T13:46:38.546Z,21.54
2019-03-05T13:47:44.055Z,21.24
2019-03-05T13:48:57.982Z,20.80
2019-03-05T13:49:57.737Z,20.43
2019-03-05T13:51:00.616Z,20.05
2019-03-05T13:52:06.148Z,19.79
2019-03-05T13:53:15.108Z,19.43
2019-03-05T13:54:17.165Z,19.17
2019-03-05T13:55:23.474Z,18.83
2019-03-05T13:56:28.195Z,18.64
2019-03-05T13:57:33.730Z,18.50
2019-03-05T13:58:39.234Z,18.36
2019-03-05T13:59:44.748Z,18.46
2019-03-05T14:00:50.959Z,18.52
2019-03-05T14:01:55.792Z,20.43
2019-03-05T14:03:01.314Z,22.84
2019-03-05T14:04:06.822Z,24.98
2019-03-05T14:05:12.336Z,26.64
2019-03-05T14:06:17.845Z,28.16
2019-03-05T14:07:23.371Z,29.57
2019-03-05T14:08:28.889Z,30.23
2019-03-05T14:09:34.412Z,28.87
2019-03-05T14:10:39.940Z,28.25
2019-03-05T14:11:45.442Z,28.03
2019-03-05T14:12:50.956Z,26.94
2019-03-05T14:13:56.499Z,26.35
2019-03-05T14:15:02.019Z,25.97
2019-03-05T14:16:07.524Z,25.68
2019-03-05T14:17:13.045Z,24.76
2019-03-05T14:18:18.570Z,24.08
2019-03-05T14:19:24.071Z,23.22
2019-03-05T14:20:31.916Z,22.28
2019-03-05T14:21:35.108Z,21.54
2019-03-05T14:22:40.635Z,21.13
2019-03-05T14:23:46.164Z,20.51